Time;durP1;ratioP1;P1;durP2;ratioP2;P2;SDS_P1;SDS_P2;PMS_P1;PMS_P2;Temp;Humidity;BMP_temperature;BMP_pressure;BME280_temperature;BME280_humidity;BME280_pressure;Samples;Min_cycle;Max_cycle;Signal;HPM_P1;HPM_P2
2021/11/23 00:00:17;;;;;;;10.50;7.72;;;3.80;99.90;;;;;;5056427;28;20263;-72
2021/11/23 00:02:44;;;;;;;10.07;7.57;;;3.80;99.90;;;;;;5057678;28;20254;-75
2021/11/23 00:05:13;;;;;;;11.85;8.43;;;3.80;99.90;;;;;;5058688;28;20629;-74
2021/11/23 00:07:40;;;;;;;12.85;8.80;;;3.70;99.90;;;;;;5056049;28;20239;-70
2021/11/23 00:10:08;;;;;;;11.00;8.48;;;3.60;99.90;;;;;;5054628;28;20316;-72
2021/11/23 00:12:36;;;;;;;14.52;10.32;;;3.60;99.90;;;;;;5054019;28;20736;-70
2021/11/23 00:15:05;;;;;;;14.32;9.82;;;3.60;99.90;;;;;;5054486;28;20294;-71
2021/11/23 00:17:32;;;;;;;13.52;8.88;;;3.60;99.90;;;;;;5054148;28;20254;-72
2021/11/23 00:19:59;;;;;;;15.25;9.43;;;3.60;99.90;;;;;;5054196;28;20311;-71
2021/11/23 00:22:26;;;;;;;13.15;9.52;;;3.60;99.90;;;;;;5054438;28;20254;-71
2021/11/23 00:24:53;;;;;;;12.60;8.70;;;3.50;99.90;;;;;;5054355;28;20246;-74
2021/11/23 00:27:20;;;;;;;10.23;7.82;;;3.40;99.90;;;;;;5055532;28;20208;-74
2021/11/23 00:29:47;;;;;;;10.85;8.40;;;3.40;99.90;;;;;;5055060;28;20301;-74
2021/11/23 00:32:15;;;;;;;11.52;8.55;;;3.40;99.90;;;;;;5054606;28;20239;-73
2021/11/23 00:34:42;;;;;;;10.30;8.60;;;3.30;99.90;;;;;;5054692;28;20253;-72
2021/11/23 00:37:09;;;;;;;13.93;9.07;;;3.30;99.90;;;;;;5053195;28;20245;-73
2021/11/23 00:39:36;;;;;;;13.23;8.35;;;3.30;99.90;;;;;;5053710;28;20311;-73
2021/11/23 00:42:03;;;;;;;11.07;8.82;;;3.30;99.90;;;;;;5053175;28;20306;-71
2021/11/23 00:44:31;;;;;;;12.95;9.65;;;3.30;99.90;;;;;;5053639;28;20228;-73
2021/11/23 00:46:58;;;;;;;10.95;8.23;;;3.10;99.90;;;;;;5053357;28;20235;-74
2021/11/23 00:49:26;;;;;;;10.80;7.85;;;3.10;99.90;;;;;;5053798;28;20758;-73
2021/11/23 00:51:53;;;;;;;11.38;8.20;;;3.10;99.90;;;;;;5053766;28;20230;-73
2021/11/23 00:54:20;;;;;;;11.75;8.05;;;3.20;99.90;;;;;;5053179;28;20200;-74
2021/11/23 00:56:47;;;;;;;11.45;8.18;;;3.20;99.90;;;;;;5053208;28;20281;-72
2021/11/23 00:59:17;;;;;;;11.57;8.10;;;3.20;99.90;;;;;;5053029;28;20255;-73
2021/11/23 01:01:44;;;;;;;12.77;8.32;;;3.30;99.90;;;;;;5053299;28;20294;-74
2021/11/23 01:04:11;;;;;;;12.85;7.65;;;3.20;99.90;;;;;;5053638;28;20650;-76
2021/11/23 01:06:39;;;;;;;11.63;8.25;;;3.30;99.90;;;;;;5053431;28;20286;-75
2021/11/23 01:09:06;;;;;;;10.45;8.15;;;3.30;99.90;;;;;;5053299;28;20318;-76
2021/11/23 01:11:33;;;;;;;12.00;8.52;;;3.30;99.90;;;;;;5053754;28;20749;-74
2021/11/23 01:14:00;;;;;;;10.13;8.00;;;3.30;99.90;;;;;;5053543;28;20286;-74
2021/11/23 01:16:27;;;;;;;12.85;8.50;;;3.40;99.90;;;;;;5053514;28;20215;-72
2021/11/23 01:18:54;;;;;;;14.85;9.00;;;3.40;99.90;;;;;;5052832;28;20254;-75
2021/11/23 01:21:21;;;;;;;11.77;8.38;;;3.30;99.90;;;;;;5053235;28;20245;-75
2021/11/23 01:23:49;;;;;;;10.20;8.05;;;3.40;99.90;;;;;;5052252;28;20743;-73
2021/11/23 01:26:16;;;;;;;11.98;8.75;;;3.40;99.90;;;;;;5052478;28;20294;-74
2021/11/23 01:28:43;;;;;;;9.63;8.32;;;3.30;99.90;;;;;;5052724;28;20732;-74
2021/11/23 01:31:09;;;;;;;10.52;8.27;;;3.30;99.90;;;;;;5053022;28;20254;-74
2021/11/23 01:33:37;;;;;;;11.73;8.75;;;3.30;99.90;;;;;;5052301;28;20231;-75
2021/11/23 01:36:04;;;;;;;13.93;7.80;;;3.40;99.90;;;;;;5052768;28;20240;-75
2021/11/23 01:38:32;;;;;;;12.05;8.57;;;3.30;99.90;;;;;;5052701;28;20259;-76
2021/11/23 01:41:01;;;;;;;10.30;8.95;;;3.30;99.90;;;;;;5052719;28;20200;-75
2021/11/23 01:43:30;;;;;;;12.30;8.45;;;3.30;99.90;;;;;;5052169;28;20219;-72
2021/11/23 01:45:57;;;;;;;12.95;9.15;;;3.10;99.90;;;;;;5052648;28;20653;-74
2021/11/23 01:48:23;;;;;;;12.00;9.23;;;3.10;99.90;;;;;;5052176;28;20224;-71
2021/11/23 01:50:50;;;;;;;12.02;8.90;;;3.10;99.90;;;;;;5052573;28;20640;-73
2021/11/23 01:53:17;;;;;;;11.43;8.18;;;3.10;99.90;;;;;;5051818;28;20235;-71
2021/11/23 01:55:44;;;;;;;11.90;7.95;;;3.10;99.90;;;;;;5052154;28;20257;-72
2021/11/23 01:58:17;;;;;;;11.02;8.32;;;3.10;99.90;;;;;;5053048;28;20246;-74
2021/11/23 02:00:46;;;;;;;10.43;8.60;;;3.00;99.90;;;;;;5056900;28;20681;-75
2021/11/23 02:03:14;;;;;;;10.20;8.50;;;2.90;99.90;;;;;;5056652;28;20229;-76
2021/11/23 02:05:41;;;;;;;11.75;8.88;;;2.90;99.90;;;;;;5057091;28;20760;-75
2021/11/23 02:08:10;;;;;;;11.60;8.20;;;2.90;99.90;;;;;;5056838;28;20610;-75
2021/11/23 02:10:37;;;;;;;11.65;8.68;;;2.80;99.90;;;;;;5056872;28;20561;-74
2021/11/23 02:13:04;;;;;;;12.02;8.93;;;2.70;99.90;;;;;;5056445;28;20298;-77
2021/11/23 02:15:33;;;;;;;10.45;8.00;;;2.70;99.90;;;;;;5056336;28;20230;-74
2021/11/23 02:18:00;;;;;;;12.40;8.40;;;2.70;99.90;;;;;;5056035;28;20246;-77
2021/11/23 02:20:28;;;;;;;13.48;8.00;;;2.60;99.90;;;;;;5056409;28;20249;-74
2021/11/23 02:22:55;;;;;;;11.48;9.05;;;2.60;99.90;;;;;;5055669;28;20262;-74
2021/11/23 02:25:22;;;;;;;15.20;9.55;;;2.60;99.90;;;;;;5056220;28;20249;-75
2021/11/23 02:27:49;;;;;;;12.10;8.70;;;2.70;99.90;;;;;;5056388;28;20212;-74
2021/11/23 02:30:16;;;;;;;12.77;9.38;;;2.70;99.90;;;;;;5056305;28;20229;-76
2021/11/23 02:32:51;;;;;;;11.75;9.30;;;2.70;99.90;;;;;;5056067;28;20253;-75
2021/11/23 02:35:19;;;;;;;12.45;9.93;;;2.70;99.90;;;;;;5055988;28;20616;-73
2021/11/23 02:37:50;;;;;;;14.90;9.98;;;2.60;99.90;;;;;;5056057;28;20629;-75
2021/11/23 02:40:18;;;;;;;14.45;10.32;;;2.50;99.90;;;;;;5057324;28;20254;-73
2021/11/23 02:42:46;;;;;;;16.10;10.25;;;2.30;99.90;;;;;;5057025;28;20310;-73
2021/11/23 02:45:14;;;;;;;14.25;9.50;;;2.00;99.90;;;;;;5056927;28;20309;-72
2021/11/23 02:47:41;;;;;;;16.60;11.20;;;1.80;99.90;;;;;;5057017;28;20235;-72
2021/11/23 02:50:11;;;;;;;16.33;10.98;;;1.70;99.90;;;;;;5056546;28;20227;-72
2021/11/23 02:52:38;;;;;;;15.90;11.07;;;1.70;99.90;;;;;;5057086;28;20564;-72
2021/11/23 02:55:07;;;;;;;18.50;11.50;;;1.70;99.90;;;;;;5057061;28;20297;-72
2021/11/23 02:57:35;;;;;;;18.20;11.90;;;1.60;99.90;;;;;;5056644;28;20207;-72
2021/11/23 03:00:06;;;;;;;15.90;11.43;;;1.60;99.90;;;;;;5057279;28;20242;-72
2021/11/23 03:02:33;;;;;;;16.83;11.90;;;1.50;99.90;;;;;;5057092;28;20242;-72
2021/11/23 03:05:01;;;;;;;19.58;11.90;;;1.50;99.90;;;;;;5056801;28;20602;-72
2021/11/23 03:07:28;;;;;;;19.52;12.10;;;1.50;99.90;;;;;;5056915;28;20281;-72
2021/11/23 03:09:56;;;;;;;16.05;10.90;;;1.50;99.90;;;;;;5056994;28;20265;-72
2021/11/23 03:12:26;;;;;;;17.85;10.75;;;1.50;99.90;;;;;;5056364;28;20235;-71
2021/11/23 03:14:54;;;;;;;15.82;11.20;;;1.70;99.90;;;;;;5055962;28;20291;-71
2021/11/23 03:17:21;;;;;;;15.40;10.57;;;1.80;99.90;;;;;;5055917;28;20301;-72
2021/11/23 03:19:50;;;;;;;15.55;11.32;;;1.80;99.90;;;;;;5056147;28;20255;-72
2021/11/23 03:22:18;;;;;;;17.75;11.15;;;1.80;99.90;;;;;;5056208;28;20238;-72
2021/11/23 03:24:46;;;;;;;15.77;11.45;;;1.60;99.90;;;;;;5056465;28;20254;-72
2021/11/23 03:27:13;;;;;;;18.30;11.60;;;1.60;99.90;;;;;;5056544;28;20634;-72
2021/11/23 03:29:43;;;;;;;18.33;12.00;;;1.50;99.90;;;;;;5055991;28;20649;-71
2021/11/23 03:32:11;;;;;;;16.55;11.93;;;1.40;99.90;;;;;;5056692;28;20313;-72
2021/11/23 03:34:39;;;;;;;17.73;11.43;;;1.40;99.90;;;;;;5056310;28;20620;-72
2021/11/23 03:37:09;;;;;;;16.63;11.57;;;1.30;99.90;;;;;;5055842;28;20203;-72
2021/11/23 03:39:37;;;;;;;16.98;10.10;;;1.40;99.90;;;;;;5056335;28;20310;-73
2021/11/23 03:42:05;;;;;;;16.67;10.70;;;1.60;99.90;;;;;;5056467;28;20290;-72
2021/11/23 03:44:32;;;;;;;15.80;10.40;;;1.80;99.90;;;;;;5056025;28;20309;-72
2021/11/23 03:47:01;;;;;;;15.23;10.20;;;1.90;99.90;;;;;;5056255;28;20253;-72
2021/11/23 03:49:28;;;;;;;15.27;10.23;;;2.00;99.90;;;;;;5056469;28;20289;-72
2021/11/23 03:51:55;;;;;;;15.05;10.70;;;2.20;99.90;;;;;;5056352;28;20239;-73
2021/11/23 03:54:22;;;;;;;13.07;9.90;;;2.30;99.90;;;;;;5056175;28;20202;-75
2021/11/23 03:56:49;;;;;;;15.90;10.60;;;2.40;99.90;;;;;;5055767;28;20298;-72
2021/11/23 03:59:16;;;;;;;14.82;10.30;;;2.50;99.90;;;;;;5055644;28;20231;-71
2021/11/23 04:01:43;;;;;;;14.15;9.93;;;2.50;99.90;;;;;;5055872;28;20235;-71
2021/11/23 04:04:12;;;;;;;14.80;10.07;;;2.50;99.90;;;;;;5055607;28;20223;-72
2021/11/23 04:06:39;;;;;;;15.00;10.40;;;2.60;99.90;;;;;;5056031;28;20290;-71
2021/11/23 04:09:06;;;;;;;15.25;10.70;;;2.40;99.90;;;;;;5055127;28;20314;-72
2021/11/23 04:11:34;;;;;;;15.70;10.50;;;2.20;99.90;;;;;;5055524;28;20207;-72
2021/11/23 04:14:01;;;;;;;16.85;10.75;;;2.10;99.90;;;;;;5055356;28;20231;-72
2021/11/23 04:16:27;;;;;;;13.10;9.48;;;2.20;99.90;;;;;;5054794;28;20302;-72
2021/11/23 04:18:55;;;;;;;16.48;10.57;;;2.20;99.90;;;;;;5055331;28;20713;-72
2021/11/23 04:21:24;;;;;;;15.85;10.45;;;2.20;99.90;;;;;;5054989;28;20290;-71
2021/11/23 04:23:51;;;;;;;14.80;10.55;;;2.20;99.90;;;;;;5055235;28;20313;-71
2021/11/23 04:26:18;;;;;;;15.65;10.60;;;2.20;99.90;;;;;;5055230;28;20207;-72
2021/11/23 04:28:45;;;;;;;12.73;9.65;;;2.20;99.90;;;;;;5055355;28;20652;-72
2021/11/23 04:31:12;;;;;;;14.43;9.95;;;2.30;99.90;;;;;;5055020;28;20235;-72
2021/11/23 04:33:39;;;;;;;16.48;11.02;;;2.30;99.90;;;;;;5055395;28;20244;-71
2021/11/23 04:36:06;;;;;;;14.13;10.65;;;2.30;99.90;;;;;;5054894;28;20235;-71
2021/11/23 04:38:35;;;;;;;15.70;10.50;;;2.30;99.90;;;;;;5054660;28;20282;-72
2021/11/23 04:41:02;;;;;;;15.95;10.15;;;2.40;99.90;;;;;;5054692;28;20282;-72
2021/11/23 04:43:28;;;;;;;13.52;10.27;;;2.40;99.90;;;;;;5054367;28;20322;-71
2021/11/23 04:45:56;;;;;;;15.35;10.48;;;2.30;99.90;;;;;;5054359;28;20238;-72
2021/11/23 04:48:23;;;;;;;14.85;10.75;;;2.30;99.90;;;;;;5054526;28;20223;-72
2021/11/23 04:50:50;;;;;;;15.38;10.75;;;2.40;99.90;;;;;;5055012;28;20295;-72
2021/11/23 04:53:17;;;;;;;12.93;9.50;;;2.40;99.90;;;;;;5054780;28;20237;-71
2021/11/23 04:55:45;;;;;;;16.45;11.35;;;2.40;99.90;;;;;;5053892;28;20294;-72
2021/11/23 04:58:13;;;;;;;16.30;11.00;;;2.40;99.90;;;;;;5054245;28;20295;-71
2021/11/23 05:00:40;;;;;;;16.80;10.88;;;2.30;99.90;;;;;;5054522;28;20206;-72
2021/11/23 05:03:07;;;;;;;15.30;11.15;;;2.40;99.90;;;;;;5054377;28;20261;-72
2021/11/23 05:05:34;;;;;;;15.02;10.45;;;2.40;99.90;;;;;;5053765;28;20291;-72
2021/11/23 05:08:01;;;;;;;14.88;10.82;;;2.30;99.90;;;;;;5054077;28;20627;-72
2021/11/23 05:10:28;;;;;;;16.52;10.45;;;2.40;99.90;;;;;;5054239;28;20380;-72
2021/11/23 05:12:56;;;;;;;15.38;10.75;;;2.30;99.90;;;;;;5054037;28;20290;-71
2021/11/23 05:15:23;;;;;;;15.52;9.93;;;2.30;99.90;;;;;;5053674;28;20621;-72
2021/11/23 05:17:50;;;;;;;14.30;10.73;;;2.30;99.90;;;;;;5053947;28;20286;-72
2021/11/23 05:20:17;;;;;;;12.70;9.40;;;2.30;99.90;;;;;;5053948;28;20314;-71
2021/11/23 05:22:44;;;;;;;13.25;9.30;;;2.30;99.90;;;;;;5053897;28;20294;-71
2021/11/23 05:25:11;;;;;;;16.38;10.25;;;2.30;99.90;;;;;;5053620;28;20329;-72
2021/11/23 05:27:39;;;;;;;14.45;11.13;;;2.30;99.90;;;;;;5053783;28;20234;-72
2021/11/23 05:30:09;;;;;;;15.75;10.88;;;2.20;99.90;;;;;;5053974;28;20265;-72
2021/11/23 05:32:36;;;;;;;16.00;11.05;;;2.30;99.90;;;;;;5053710;28;20246;-71
2021/11/23 05:35:04;;;;;;;15.13;10.85;;;2.20;99.90;;;;;;5053175;28;20285;-71
2021/11/23 05:37:30;;;;;;;18.13;11.45;;;2.20;99.90;;;;;;5053557;28;20295;-71
2021/11/23 05:39:57;;;;;;;15.43;11.32;;;2.10;99.90;;;;;;5053537;28;20251;-72
2021/11/23 05:42:24;;;;;;;16.25;10.68;;;2.10;99.90;;;;;;5054183;28;20239;-72
2021/11/23 05:44:51;;;;;;;16.92;11.60;;;2.00;99.90;;;;;;5053595;28;20255;-72
2021/11/23 05:47:19;;;;;;;18.67;11.15;;;2.00;99.90;;;;;;5053847;28;20238;-72
2021/11/23 05:49:46;;;;;;;15.32;10.90;;;2.00;99.90;;;;;;5053839;28;20310;-72
2021/11/23 05:52:13;;;;;;;18.70;11.20;;;2.00;99.90;;;;;;5053455;28;20283;-72
2021/11/23 05:54:40;;;;;;;18.60;11.38;;;2.00;99.90;;;;;;5053424;28;20287;-72
2021/11/23 05:57:07;;;;;;;16.23;10.93;;;2.00;99.90;;;;;;5053737;28;20700;-72
2021/11/23 05:59:34;;;;;;;15.18;10.93;;;1.90;99.90;;;;;;5053690;28;20282;-71
2021/11/23 06:02:01;;;;;;;16.73;12.10;;;2.00;99.90;;;;;;5053778;28;20294;-72
2021/11/23 06:04:29;;;;;;;16.50;11.65;;;2.00;99.90;;;;;;5053351;28;20315;-72
2021/11/23 06:06:56;;;;;;;17.95;10.95;;;1.90;99.90;;;;;;5053761;28;20298;-72
2021/11/23 06:09:23;;;;;;;16.38;11.45;;;1.90;99.90;;;;;;5054034;28;20310;-72
2021/11/23 06:11:50;;;;;;;18.27;11.80;;;1.90;99.90;;;;;;5053726;28;20234;-72
2021/11/23 06:14:16;;;;;;;18.30;11.80;;;1.90;99.90;;;;;;5053924;28;20235;-72
2021/11/23 06:16:45;;;;;;;15.77;11.20;;;1.90;99.90;;;;;;5053299;28;20251;-72
2021/11/23 06:19:13;;;;;;;15.80;11.25;;;1.90;99.90;;;;;;5053254;28;20567;-72
2021/11/23 06:21:41;;;;;;;17.92;11.98;;;2.00;99.90;;;;;;5053428;28;20253;-72
2021/11/23 06:24:09;;;;;;;14.27;10.65;;;1.90;99.90;;;;;;5053599;28;20227;-72
2021/11/23 06:26:36;;;;;;;19.13;11.82;;;1.90;99.90;;;;;;5053270;28;20199;-71
2021/11/23 06:29:04;;;;;;;18.33;12.10;;;1.90;99.90;;;;;;5053505;28;20630;-72
2021/11/23 06:31:31;;;;;;;18.00;12.52;;;2.00;99.90;;;;;;5053230;28;20234;-72
2021/11/23 06:33:59;;;;;;;17.10;12.25;;;1.80;99.90;;;;;;5053004;28;20294;-71
2021/11/23 06:36:26;;;;;;;17.52;12.10;;;1.90;99.90;;;;;;5052980;28;20261;-71
2021/11/23 06:38:54;;;;;;;17.10;11.75;;;1.80;99.90;;;;;;5052887;28;20588;-71
2021/11/23 06:41:21;;;;;;;19.45;12.07;;;1.90;99.90;;;;;;5053004;28;20238;-72
2021/11/23 06:43:48;;;;;;;19.13;12.05;;;1.80;99.90;;;;;;5053309;28;20239;-72
2021/11/23 06:46:15;;;;;;;18.15;12.15;;;1.90;99.90;;;;;;5056870;28;20235;-71
2021/11/23 06:48:42;;;;;;;18.13;11.57;;;1.90;99.90;;;;;;5057579;28;20725;-72
2021/11/23 06:51:08;;;;;;;22.15;13.93;;;1.90;99.90;;;;;;5057465;28;20242;-72
2021/11/23 06:53:36;;;;;;;18.98;12.02;;;1.90;99.90;;;;;;5057486;28;20259;-73
2021/11/23 06:56:05;;;;;;;18.10;12.07;;;2.00;99.90;;;;;;5057216;28;20200;-71
2021/11/23 06:58:32;;;;;;;17.90;11.55;;;2.10;99.90;;;;;;5057167;28;20270;-71
2021/11/23 07:00:59;;;;;;;17.90;11.90;;;2.10;99.90;;;;;;5057238;28;20207;-72
2021/11/23 07:03:26;;;;;;;19.27;12.00;;;2.00;99.90;;;;;;5057261;28;20290;-71
2021/11/23 07:05:53;;;;;;;18.58;12.23;;;2.00;99.90;;;;;;5056745;28;20255;-72
2021/11/23 07:08:20;;;;;;;17.38;10.85;;;2.00;99.90;;;;;;5057270;28;20258;-71
2021/11/23 07:10:46;;;;;;;19.83;12.00;;;2.10;99.90;;;;;;5057348;28;20295;-71
2021/11/23 07:13:15;;;;;;;17.25;12.02;;;2.10;99.90;;;;;;5056928;28;20231;-72
2021/11/23 07:15:42;;;;;;;20.67;11.70;;;2.10;99.90;;;;;;5057030;28;20303;-72
2021/11/23 07:18:09;;;;;;;19.20;12.52;;;2.00;99.90;;;;;;5056864;28;20246;-73
2021/11/23 07:20:36;;;;;;;19.23;12.27;;;2.00;99.90;;;;;;5056937;28;20235;-72
2021/11/23 07:23:03;;;;;;;20.55;11.50;;;2.00;99.90;;;;;;5056649;28;20294;-72
2021/11/23 07:25:29;;;;;;;17.95;11.55;;;1.90;99.90;;;;;;5056215;28;20255;-72
2021/11/23 07:27:58;;;;;;;20.45;12.60;;;2.00;99.90;;;;;;5056753;28;20290;-72
2021/11/23 07:30:26;;;;;;;18.27;12.45;;;2.10;99.90;;;;;;5056582;28;20223;-72
2021/11/23 07:32:53;;;;;;;21.02;13.30;;;2.10;99.90;;;;;;5056651;28;20238;-72
2021/11/23 07:35:20;;;;;;;17.08;12.07;;;2.20;99.90;;;;;;5056307;28;20286;-72
2021/11/23 07:37:48;;;;;;;18.50;12.55;;;2.30;99.90;;;;;;5056080;28;20729;-71
2021/11/23 07:40:16;;;;;;;19.38;13.98;;;2.30;99.90;;;;;;5056249;28;20254;-71
2021/11/23 07:42:43;;;;;;;18.38;12.40;;;2.30;99.90;;;;;;5055814;28;20678;-72
2021/11/23 07:45:11;;;;;;;20.40;12.40;;;2.40;99.90;;;;;;5055468;28;20768;-72
2021/11/23 07:47:39;;;;;;;19.05;13.20;;;2.40;99.90;;;;;;5055917;28;20211;-71
2021/11/23 07:50:07;;;;;;;19.38;13.05;;;2.30;99.90;;;;;;5055849;28;20254;-71
2021/11/23 07:52:35;;;;;;;19.90;13.52;;;2.30;99.90;;;;;;5055639;28;20239;-72
2021/11/23 07:55:03;;;;;;;22.77;14.15;;;2.10;99.90;;;;;;5055346;28;20253;-72
2021/11/23 07:57:30;;;;;;;21.05;14.30;;;2.10;99.90;;;;;;5054697;28;20203;-72
2021/11/23 07:59:57;;;;;;;19.13;13.38;;;2.20;99.90;;;;;;5055546;28;20266;-72
2021/11/23 08:02:24;;;;;;;23.13;14.20;;;2.20;99.90;;;;;;5055378;28;20295;-72
2021/11/23 08:04:52;;;;;;;21.75;13.90;;;2.10;99.90;;;;;;5055201;28;20310;-71
2021/11/23 08:07:20;;;;;;;18.67;12.77;;;2.20;99.90;;;;;;5055057;28;20246;-72
2021/11/23 08:09:47;;;;;;;20.25;13.35;;;2.30;99.90;;;;;;5055432;28;20220;-71
2021/11/23 08:12:14;;;;;;;20.33;13.77;;;2.30;99.90;;;;;;5055143;28;20721;-72
2021/11/23 08:14:41;;;;;;;17.83;12.90;;;2.40;99.90;;;;;;5055057;28;20235;-72
2021/11/23 08:17:08;;;;;;;22.67;14.13;;;2.40;99.90;;;;;;5054776;28;20251;-72
2021/11/23 08:19:35;;;;;;;20.25;14.05;;;2.50;99.90;;;;;;5055122;28;20255;-72
2021/11/23 08:22:03;;;;;;;19.67;13.65;;;2.40;99.90;;;;;;5055031;28;20233;-72
2021/11/23 08:24:30;;;;;;;19.35;14.02;;;2.50;99.90;;;;;;5055497;28;20702;-72
2021/11/23 08:26:59;;;;;;;21.70;13.82;;;2.50;99.90;;;;;;5055465;28;20229;-72
2021/11/23 08:29:26;;;;;;;19.33;12.93;;;2.50;99.90;;;;;;5054856;28;20637;-73
2021/11/23 08:31:55;;;;;;;19.90;14.07;;;2.60;99.90;;;;;;5054887;28;20328;-71
2021/11/23 08:34:22;;;;;;;21.25;13.68;;;2.60;99.90;;;;;;5054844;28;20676;-72
2021/11/23 08:36:50;;;;;;;18.40;13.27;;;2.60;99.90;;;;;;5055670;28;20264;-72
2021/11/23 08:39:18;;;;;;;18.25;13.80;;;2.70;99.90;;;;;;5055306;28;20224;-72
2021/11/23 08:41:46;;;;;;;20.75;13.35;;;2.70;99.90;;;;;;5055153;28;20227;-72
2021/11/23 08:44:13;;;;;;;18.15;13.05;;;2.70;99.90;;;;;;5055370;28;20209;-73
2021/11/23 08:46:40;;;;;;;20.33;13.60;;;2.60;99.90;;;;;;5055420;28;20294;-72
2021/11/23 08:49:07;;;;;;;20.55;13.65;;;2.60;99.90;;;;;;5055310;28;20717;-72
2021/11/23 08:51:37;;;;;;;22.00;14.77;;;2.60;99.90;;;;;;5055424;28;20290;-72
2021/11/23 08:54:05;;;;;;;20.88;14.32;;;2.60;99.90;;;;;;5055145;28;20203;-72
2021/11/23 08:56:36;;;;;;;21.67;14.13;;;2.60;99.90;;;;;;5055043;28;20231;-72
2021/11/23 08:59:07;;;;;;;18.17;13.50;;;2.50;99.90;;;;;;5055516;28;20249;-72
2021/11/23 09:01:34;;;;;;;20.65;13.68;;;2.60;99.90;;;;;;5055391;28;20211;-72
2021/11/23 09:04:04;;;;;;;21.00;14.00;;;2.60;99.90;;;;;;5055120;28;20249;-71
2021/11/23 09:06:32;;;;;;;20.10;12.93;;;2.60;99.90;;;;;;5055022;28;20254;-71
2021/11/23 09:08:59;;;;;;;18.83;12.90;;;2.70;99.90;;;;;;5054642;28;20228;-73
2021/11/23 09:11:27;;;;;;;18.48;13.75;;;2.70;99.90;;;;;;5055698;28;20673;-72
2021/11/23 09:13:55;;;;;;;18.73;13.52;;;2.70;99.90;;;;;;5060226;28;20618;-72
2021/11/23 09:16:23;;;;;;;20.05;13.00;;;2.50;99.90;;;;;;5052539;28;20214;-72
2021/11/23 09:18:50;;;;;;;20.77;12.68;;;2.50;99.90;;;;;;5052611;28;20273;-72
2021/11/23 09:21:18;;;;;;;17.38;13.50;;;2.50;99.90;;;;;;5052761;28;20246;-72
2021/11/23 09:23:45;;;;;;;18.50;13.05;;;2.50;99.90;;;;;;5052469;28;20265;-73
2021/11/23 09:26:11;;;;;;;21.80;12.85;;;2.60;99.90;;;;;;5052192;28;20227;-73
2021/11/23 09:28:39;;;;;;;18.10;12.10;;;2.50;99.90;;;;;;5052594;28;20262;-74
2021/11/23 09:31:07;;;;;;;19.10;13.13;;;2.50;99.90;;;;;;5052748;28;20364;-72
2021/11/23 09:33:34;;;;;;;20.77;13.35;;;2.70;99.90;;;;;;5052528;28;20200;-73
2021/11/23 09:36:01;;;;;;;20.20;14.27;;;2.70;99.90;;;;;;5051990;28;20282;-73
2021/11/23 09:38:28;;;;;;;20.75;13.93;;;2.60;99.90;;;;;;5052213;28;20227;-73
2021/11/23 09:40:55;;;;;;;18.60;13.68;;;2.60;99.90;;;;;;5052625;28;20294;-73
2021/11/23 09:43:22;;;;;;;20.77;13.80;;;2.70;99.90;;;;;;5052671;28;20272;-73
2021/11/23 09:45:49;;;;;;;18.83;13.18;;;2.70;99.90;;;;;;5051952;28;20215;-74
2021/11/23 09:48:18;;;;;;;21.35;14.65;;;2.50;99.90;;;;;;5052177;28;20207;-72
2021/11/23 09:50:45;;;;;;;20.48;14.88;;;2.40;99.90;;;;;;5052180;28;20199;-72
2021/11/23 09:53:12;;;;;;;21.70;14.25;;;2.30;99.90;;;;;;5052198;28;20210;-73
2021/11/23 09:55:39;;;;;;;22.95;15.13;;;2.30;99.90;;;;;;5051850;28;20290;-73
2021/11/23 09:58:09;;;;;;;22.23;14.82;;;2.30;99.90;;;;;;5052130;28;20199;-73
2021/11/23 10:00:38;;;;;;;20.00;13.32;;;2.40;99.90;;;;;;5052337;28;20254;-72
2021/11/23 10:03:10;;;;;;;19.50;13.85;;;2.60;99.90;;;;;;5052348;28;20588;-73
2021/11/23 10:05:40;;;;;;;21.63;14.10;;;2.60;99.90;;;;;;5051590;28;20280;-72
2021/11/23 10:08:10;;;;;;;17.52;14.00;;;2.60;99.90;;;;;;5052353;28;20227;-73
2021/11/23 10:10:43;;;;;;;19.65;13.23;;;2.70;99.90;;;;;;5052375;28;20262;-73
2021/11/23 10:13:11;;;;;;;19.48;13.95;;;2.90;99.90;;;;;;5052715;28;20238;-73
2021/11/23 10:15:41;;;;;;;19.35;13.60;;;2.90;99.90;;;;;;5051509;28;20211;-76
2021/11/23 10:18:11;;;;;;;19.98;13.35;;;3.00;99.90;;;;;;5052377;28;20214;-73
2021/11/23 10:20:43;;;;;;;18.58;12.93;;;3.10;99.90;;;;;;5054925;28;20208;-71
2021/11/23 10:23:26;;;;;;;17.00;13.25;;;3.10;99.90;;;;;;5056641;28;20214;-71
2021/11/23 10:25:55;;;;;;;17.83;13.13;;;3.10;99.90;;;;;;5055674;28;20226;-72
2021/11/23 10:28:26;;;;;;;16.98;12.23;;;3.20;99.90;;;;;;5056233;28;20258;-72
2021/11/23 10:30:53;;;;;;;18.30;13.48;;;3.20;99.90;;;;;;5055747;28;20238;-71
2021/11/23 10:33:20;;;;;;;17.05;12.52;;;3.30;99.90;;;;;;5056316;28;20267;-71
2021/11/23 10:35:52;;;;;;;17.67;13.30;;;3.40;99.90;;;;;;5056106;28;20291;-73
2021/11/23 10:38:20;;;;;;;18.55;13.77;;;3.50;99.90;;;;;;5056264;28;20199;-73
2021/11/23 10:40:49;;;;;;;16.50;12.93;;;3.50;99.90;;;;;;5055723;28;20233;-71
2021/11/23 10:43:18;;;;;;;19.98;13.65;;;3.40;99.90;;;;;;5056810;28;20199;-73
2021/11/23 10:45:47;;;;;;;17.27;13.40;;;3.30;99.90;;;;;;5055682;28;20318;-72
2021/11/23 10:48:16;;;;;;;15.98;12.75;;;3.20;99.90;;;;;;5056116;28;20225;-71
2021/11/23 10:50:56;;;;;;;18.45;12.32;;;3.10;99.90;;;;;;5056014;28;20266;-71
2021/11/23 10:53:25;;;;;;;16.88;12.43;;;3.10;99.90;;;;;;5055772;28;20571;-73
2021/11/23 10:55:52;;;;;;;15.20;11.35;;;3.00;99.90;;;;;;5055886;28;20230;-71
2021/11/23 10:58:19;;;;;;;14.82;11.40;;;3.20;99.90;;;;;;5056425;28;20199;-71
2021/11/23 11:00:50;;;;;;;16.20;11.40;;;3.20;99.90;;;;;;5055492;28;20238;-71
2021/11/23 11:03:17;;;;;;;15.45;11.68;;;3.30;99.90;;;;;;5055552;28;20570;-71
2021/11/23 11:05:45;;;;;;;15.85;11.40;;;3.60;99.90;;;;;;5055024;28;20220;-72
2021/11/23 11:08:14;;;;;;;15.18;11.00;;;4.00;99.90;;;;;;5055383;28;20207;-73
2021/11/23 11:10:42;;;;;;;12.60;9.68;;;4.20;99.90;;;;;;5055090;28;20257;-73
2021/11/23 11:13:11;;;;;;;12.85;10.70;;;4.40;99.90;;;;;;5054996;28;20711;-72
2021/11/23 11:15:43;;;;;;;15.18;10.98;;;4.60;99.90;;;;;;5054813;28;20294;-73
2021/11/23 11:18:12;;;;;;;16.58;11.20;;;4.60;99.90;;;;;;5055229;28;20647;-72
2021/11/23 11:20:44;;;;;;;15.77;11.27;;;4.70;99.90;;;;;;5055052;28;20513;-72
2021/11/23 11:23:14;;;;;;;13.98;11.20;;;4.60;99.90;;;;;;5055120;28;20559;-72
2021/11/23 11:26:09;;;;;;;14.13;10.80;;;4.50;99.90;;;;;;5054586;28;20223;-72
2021/11/23 11:28:46;;;;;;;13.52;10.93;;;4.40;99.90;;;;;;5054867;28;20277;-72
2021/11/23 11:31:40;;;;;;;13.55;10.73;;;4.40;99.90;;;;;;5053659;28;20250;-71
2021/11/23 11:34:22;;;;;;;11.50;9.80;;;4.60;99.90;;;;;;5054614;28;20211;-73
2021/11/23 11:36:51;;;;;;;14.55;10.23;;;4.50;99.90;;;;;;5054777;28;20200;-73
2021/11/23 11:39:48;;;;;;;12.23;10.27;;;4.60;99.90;;;;;;5054558;28;20223;-71
2021/11/23 11:43:02;;;;;;;11.40;9.02;;;4.70;99.90;;;;;;5054953;28;20234;-71
2021/11/23 11:45:45;;;;;;;10.90;8.57;;;4.60;99.90;;;;;;5054073;28;20246;-71
2021/11/23 11:48:48;;;;;;;10.23;8.63;;;4.70;99.90;;;;;;5054780;28;20210;-72
2021/11/23 11:51:27;;;;;;;10.07;7.93;;;4.70;99.90;;;;;;5054217;28;20235;-71
2021/11/23 11:53:56;;;;;;;11.60;8.30;;;4.70;99.90;;;;;;5054049;28;20207;-72
2021/11/23 11:56:42;;;;;;;10.00;7.50;;;4.80;99.90;;;;;;5054517;28;20223;-73
2021/11/23 11:59:32;;;;;;;9.93;7.63;;;5.00;99.90;;;;;;5054222;28;20767;-71
2021/11/23 12:02:05;;;;;;;8.30;7.30;;;5.10;99.90;;;;;;5053907;28;20309;-71
2021/11/23 12:04:33;;;;;;;8.77;6.57;;;5.10;99.90;;;;;;5054789;28;20200;-73
2021/11/23 12:07:18;;;;;;;8.25;6.63;;;5.30;99.90;;;;;;5055508;28;20664;-72
2021/11/23 12:09:50;;;;;;;7.57;6.65;;;5.50;99.90;;;;;;5054848;28;20281;-72
2021/11/23 12:12:32;;;;;;;6.53;5.85;;;5.80;99.90;;;;;;5054194;28;20204;-73
2021/11/23 12:15:09;;;;;;;8.57;6.55;;;5.90;99.90;;;;;;5053241;28;20199;-72
2021/11/23 12:18:08;;;;;;;6.22;5.63;;;6.00;99.90;;;;;;5053579;28;20669;-73
2021/11/23 12:20:47;;;;;;;7.18;5.85;;;6.20;99.90;;;;;;4997083;28;20243;-72
2021/11/23 12:23:17;;;;;;;7.90;6.00;;;6.40;99.90;;;;;;5053615;28;20217;-72
2021/11/23 12:25:55;;;;;;;6.63;5.40;;;6.50;99.90;;;;;;5053237;28;20335;-73
2021/11/23 12:28:23;;;;;;;7.00;5.90;;;6.70;99.90;;;;;;5053452;28;20231;-73
2021/11/23 12:30:51;;;;;;;6.53;5.60;;;6.90;99.90;;;;;;5053323;28;20287;-73
2021/11/23 12:33:20;;;;;;;6.68;5.50;;;7.00;99.90;;;;;;5053521;28;20296;-74
2021/11/23 12:35:48;;;;;;;6.63;6.00;;;7.30;99.90;;;;;;5053025;28;20290;-72
2021/11/23 12:38:27;;;;;;;6.78;5.90;;;7.50;99.90;;;;;;5053370;28;20307;-71
2021/11/23 12:40:56;;;;;;;6.88;5.20;;;7.80;99.90;;;;;;5053091;28;20705;-73
2021/11/23 12:43:23;;;;;;;8.02;6.10;;;7.90;99.30;;;;;;5052685;28;20294;-70
2021/11/23 12:45:50;;;;;;;6.75;5.90;;;7.90;99.20;;;;;;5053025;28;20315;-71
2021/11/23 12:48:32;;;;;;;6.70;6.07;;;8.20;98.70;;;;;;5053238;28;20290;-72